Time;durP1;ratioP1;P1;durP2;ratioP2;P2;SDS_P1;SDS_P2;PMS_P1;PMS_P2;Temp;Humidity;BMP_temperature;BMP_pressure;BME280_temperature;BME280_humidity;BME280_pressure;Samples;Min_cycle;Max_cycle;Signal;HPM_P1;HPM_P2
2021/03/06 00:00:07;;;;;;;8.82;4.43;;;;;;;-2.69;83.21;102801.56;5073539;28;20032;-68
2021/03/06 00:02:33;;;;;;;14.93;4.70;;;;;;;-2.69;84.03;102793.72;5073435;28;20404;-68
2021/03/06 00:04:59;;;;;;;11.48;5.18;;;;;;;-2.69;83.85;102798.06;5073490;28;20036;-68
2021/03/06 00:07:24;;;;;;;11.63;5.00;;;;;;;-2.74;83.68;102794.69;5072332;28;20036;-68
2021/03/06 00:09:49;;;;;;;10.53;4.77;;;;;;;-2.80;83.79;102801.75;5072206;28;20119;-68
2021/03/06 00:12:15;;;;;;;8.85;4.93;;;;;;;-2.83;83.86;102808.78;5072340;28;20044;-68
2021/03/06 00:14:40;;;;;;;13.20;5.07;;;;;;;-2.87;84.55;102807.97;5055641;28;20044;-68
2021/03/06 00:17:05;;;;;;;11.67;4.47;;;;;;;-2.93;84.20;102812.44;5073154;28;20032;-67
2021/03/06 00:19:31;;;;;;;18.08;4.95;;;;;;;-3.00;83.91;102809.03;5071995;28;20037;-68
2021/03/06 00:21:57;;;;;;;9.03;4.13;;;;;;;-3.00;84.06;102809.03;5072050;28;20048;-68
2021/03/06 00:24:22;;;;;;;12.77;4.90;;;;;;;-3.09;83.68;102815.31;5073000;28;20289;-68
2021/03/06 00:26:48;;;;;;;14.85;5.07;;;;;;;-3.10;84.67;102808.34;5071852;28;20044;-68
2021/03/06 00:29:14;;;;;;;15.95;5.40;;;;;;;-3.04;85.17;102812.63;5055028;28;20512;-68
2021/03/06 00:31:39;;;;;;;9.85;4.88;;;;;;;-3.01;84.93;102813.41;5071851;28;20032;-68
2021/03/06 00:34:05;;;;;;;14.03;7.40;;;;;;;-2.93;85.28;102809.81;5071892;28;20043;-68
2021/03/06 00:36:31;;;;;;;22.58;5.18;;;;;;;-2.94;85.35;102802.88;5055098;28;20028;-68
2021/03/06 00:38:57;;;;;;;15.82;4.75;;;;;;;-2.98;85.08;102802.91;5071295;28;20044;-68
2021/03/06 00:41:23;;;;;;;10.25;4.95;;;;;;;-2.98;85.03;102810.75;5072664;28;20068;-68
2021/03/06 00:43:48;;;;;;;17.83;4.82;;;;;;;-2.89;85.14;102808.88;5072726;28;20047;-68
2021/03/06 00:46:14;;;;;;;11.97;4.93;;;;;;;-2.89;85.03;102801.03;5072427;28;20037;-68
2021/03/06 00:48:39;;;;;;;9.77;5.07;;;;;;;-2.84;85.67;102807.06;5072118;28;20036;-68
2021/03/06 00:51:06;;;;;;;11.48;4.85;;;;;;;-2.83;85.48;102803.56;5038276;28;20036;-68
2021/03/06 00:53:34;;;;;;;16.23;4.97;;;;;;;-2.84;85.57;102807.06;5054707;28;20421;-68
2021/03/06 00:55:59;;;;;;;10.45;5.40;;;;;;;-2.87;85.36;102809.72;5054698;28;20037;-68
2021/03/06 00:58:25;;;;;;;13.95;6.53;;;;;;;-2.84;85.82;102807.06;5054498;28;20512;-68
2021/03/06 01:00:50;;;;;;;16.80;6.95;;;;;;;-2.83;86.47;102811.41;5072203;28;20120;-68
2021/03/06 01:03:15;;;;;;;9.17;5.23;;;;;;;-2.79;86.38;102810.44;5037985;28;20032;-68
2021/03/06 01:05:41;;;;;;;15.87;5.57;;;;;;;-2.79;86.37;102807.81;5072153;28;20046;-68
2021/03/06 01:08:07;;;;;;;12.27;6.30;;;;;;;-2.79;86.85;102813.06;5053943;28;20330;-68
2021/03/06 01:10:38;;;;;;;12.63;5.90;;;;;;;-2.76;87.09;102807.78;5054430;28;20037;-68
2021/03/06 01:13:05;;;;;;;16.88;5.53;;;;;;;-2.81;86.91;102805.25;5054437;28;20040;-68
2021/03/06 01:15:30;;;;;;;12.10;5.70;;;;;;;-2.82;87.25;102802.66;5071973;28;20040;-68
2021/03/06 01:17:55;;;;;;;14.93;6.70;;;;;;;-2.90;86.71;102804.53;5071616;28;20039;-68
2021/03/06 01:20:21;;;;;;;21.08;6.47;;;;;;;-2.95;86.65;102795.91;5071918;28;20028;-68
2021/03/06 01:22:46;;;;;;;11.48;6.18;;;;;;;-2.79;87.44;102795.66;5054169;28;20044;-68
2021/03/06 01:25:13;;;;;;;14.53;6.30;;;;;;;-2.78;87.26;102783.44;5071847;28;20044;-68
2021/03/06 01:27:38;;;;;;;17.85;5.88;;;;;;;-2.80;87.39;102779.97;5053843;28;20355;-68
2021/03/06 01:30:06;;;;;;;17.30;5.60;;;;;;;-2.74;87.20;102779.00;5037470;28;20127;-68
2021/03/06 01:32:31;;;;;;;23.30;6.30;;;;;;;-2.77;86.89;102775.53;5071690;28;20369;-68
2021/03/06 01:34:57;;;;;;;16.83;6.90;;;;;;;-2.82;87.23;102780.00;5071694;28;20040;-68
2021/03/06 01:37:22;;;;;;;20.42;7.32;;;;;;;-2.85;87.26;102777.44;5053945;28;20115;-68
2021/03/06 01:39:47;;;;;;;15.40;7.40;;;;;;;-2.87;87.53;102770.50;5071348;28;20098;-68
2021/03/06 01:42:14;;;;;;;14.68;6.00;;;;;;;-2.80;87.71;102769.50;5071462;28;20102;-68
2021/03/06 01:44:39;;;;;;;17.77;5.88;;;;;;;-2.77;87.63;102764.22;5071502;28;20041;-68
2021/03/06 01:47:05;;;;;;;18.87;5.60;;;;;;;-2.79;88.04;102758.16;5053631;28;20051;-68
2021/03/06 01:49:30;;;;;;;15.40;5.90;;;;;;;-2.69;88.47;102751.88;5071095;28;20032;-68
2021/03/06 01:51:57;;;;;;;15.80;4.82;;;;;;;-2.73;88.31;102744.97;5037278;28;20552;-68
2021/03/06 01:54:25;;;;;;;14.98;4.50;;;;;;;-2.72;88.13;102746.69;5071411;28;20102;-68
2021/03/06 01:56:52;;;;;;;12.88;5.05;;;;;;;-2.68;88.37;102743.13;5071344;28;20488;-68
2021/03/06 01:59:18;;;;;;;11.90;5.43;;;;;;;-2.66;88.58;102745.72;5071083;28;20170;-68
2021/03/06 02:01:43;;;;;;;11.65;5.05;;;;;;;-2.72;88.70;102736.22;5053823;28;20033;-68
2021/03/06 02:04:09;;;;;;;16.90;4.73;;;;;;;-2.67;88.90;102742.25;5071332;28;20064;-68
2021/03/06 02:06:35;;;;;;;15.40;4.68;;;;;;;-2.64;88.92;102742.19;5053541;28;20508;-68
2021/03/06 02:09:00;;;;;;;11.32;4.95;;;;;;;-2.56;89.12;102739.44;5036636;28;20139;-68
2021/03/06 02:11:54;;;;;;;8.00;4.10;;;;;;;-2.50;89.05;102746.31;5071169;28;20342;-67
2021/03/06 02:14:51;;;;;;;13.43;5.82;;;;;;;-2.44;89.02;102743.56;5053559;28;20102;-68
2021/03/06 02:17:25;;;;;;;12.05;4.55;;;;;;;-2.41;89.13;102733.91;5071149;28;20040;-67
2021/03/06 02:20:06;;;;;;;16.42;4.85;;;;;;;-2.41;89.08;102736.53;5053469;28;20101;-68
2021/03/06 02:22:54;;;;;;;11.02;4.30;;;;;;;-2.41;89.23;102733.03;5071146;28;20453;-68
2021/03/06 02:25:54;;;;;;;15.25;5.00;;;;;;;-2.40;89.03;102738.25;5070967;28;20036;-68
2021/03/06 02:28:43;;;;;;;13.15;4.20;;;;;;;-2.39;89.08;102729.53;5053124;28;20105;-68
2021/03/06 02:31:12;;;;;;;17.90;5.38;;;;;;;-2.36;88.89;102729.44;5055276;28;20446;-68
2021/03/06 02:33:40;;;;;;;13.55;4.88;;;;;;;-2.37;88.96;102726.84;5074892;28;20044;-68
2021/03/06 02:36:11;;;;;;;11.93;4.70;;;;;;;-2.36;88.96;102731.22;5057513;28;20083;-68
2021/03/06 02:38:40;;;;;;;12.20;5.63;;;;;;;-2.37;89.00;102726.84;5074769;28;20080;-68
2021/03/06 02:41:07;;;;;;;14.88;4.75;;;;;;;-2.27;88.96;102723.19;5040616;28;20036;-68
2021/03/06 02:43:33;;;;;;;14.82;5.38;;;;;;;-2.22;89.03;102721.31;5057170;28;20032;-68
2021/03/06 02:46:03;;;;;;;17.10;4.90;;;;;;;-2.14;88.71;102721.16;5074777;28;20334;-68
2021/03/06 02:48:29;;;;;;;11.07;4.95;;;;;;;-2.06;88.77;102720.97;5040054;28;20040;-68
2021/03/06 02:50:54;;;;;;;9.27;4.03;;;;;;;-1.99;89.04;102712.09;5074019;28;20048;-68
2021/03/06 02:53:20;;;;;;;12.30;3.60;;;;;;;-1.93;88.48;102711.97;5074747;28;20036;-68
2021/03/06 02:55:46;;;;;;;13.40;4.38;;;;;;;-1.89;88.29;102713.63;5074763;28;20032;-68
2021/03/06 02:58:34;;;;;;;13.68;4.00;;;;;;;-1.83;88.24;102708.25;5073427;28;20369;-68
2021/03/06 03:01:26;;;;;;;13.15;3.97;;;;;;;-1.79;87.98;102709.91;5074548;28;20082;-68
2021/03/06 03:04:13;;;;;;;10.98;4.40;;;;;;;-1.73;87.93;102703.69;5074521;28;20047;-68
2021/03/06 03:06:45;;;;;;;13.65;3.60;;;;;;;-1.68;87.77;102700.97;5074390;28;20122;-68
2021/03/06 03:09:32;;;;;;;19.98;4.93;;;;;;;-1.68;87.94;102704.44;5074004;28;20511;-68
2021/03/06 03:12:06;;;;;;;15.48;4.22;;;;;;;-1.64;87.93;102697.34;5073410;28;20432;-68
2021/03/06 03:15:16;;;;;;;11.82;4.05;;;;;;;-1.56;87.86;102698.03;5073424;28;20032;-68
2021/03/06 03:17:44;;;;;;;11.73;4.43;;;;;;;-1.56;87.77;102705.91;5048557;28;20044;-68
2021/03/06 03:20:18;;;;;;;11.40;3.50;;;;;;;-1.50;87.95;102697.88;5074196;28;20082;-68
2021/03/06 03:22:47;;;;;;;13.40;4.28;;;;;;;-1.45;87.73;102701.28;5074214;28;20033;-68
2021/03/06 03:25:13;;;;;;;16.45;4.03;;;;;;;-1.34;87.70;102712.31;5056486;28;20024;-68
2021/03/06 03:27:41;;;;;;;11.40;5.30;;;;;;;-1.30;87.53;102700.88;5073705;28;20101;-68
2021/03/06 03:30:14;;;;;;;7.57;3.83;;;;;;;-1.24;87.45;102706.84;5074002;28;20036;-68
2021/03/06 03:32:42;;;;;;;10.82;3.58;;;;;;;-1.22;87.23;102694.59;5073078;28;20028;-68
2021/03/06 03:35:11;;;;;;;11.15;4.05;;;;;;;-1.21;87.13;102697.19;5073899;28;20051;-68
2021/03/06 03:37:37;;;;;;;8.60;3.13;;;;;;;-1.12;87.09;102698.72;5072813;28;20048;-68
2021/03/06 03:40:04;;;;;;;9.52;4.25;;;;;;;-1.10;87.02;102703.00;5073799;28;20480;-69
2021/03/06 03:42:31;;;;;;;13.73;3.72;;;;;;;-1.05;87.07;102705.50;5072482;28;20036;-68
2021/03/06 03:44:58;;;;;;;15.32;5.13;;;;;;;-1.04;87.26;102694.13;5073856;28;20035;-68
2021/03/06 03:47:23;;;;;;;10.80;3.60;;;;;;;-1.06;87.23;102695.91;5072608;28;20143;-68
2021/03/06 03:49:49;;;;;;;14.48;3.53;;;;;;;-1.00;87.51;102708.88;5072569;28;20422;-68
2021/03/06 03:52:15;;;;;;;12.85;4.97;;;;;;;-0.98;87.39;102709.69;5073744;28;20622;-68
2021/03/06 03:54:41;;;;;;;16.08;4.28;;;;;;;-0.97;87.43;102706.16;5073612;28;20037;-68
2021/03/06 03:57:09;;;;;;;13.25;3.67;;;;;;;-0.95;87.70;102707.00;5072559;28;20037;-68
2021/03/06 03:59:35;;;;;;;15.60;5.53;;;;;;;-0.93;87.49;102705.19;5073275;28;20036;-68
2021/03/06 04:02:01;;;;;;;19.55;4.20;;;;;;;-0.88;87.89;102695.44;5072581;28;20068;-68
2021/03/06 04:04:26;;;;;;;19.90;4.20;;;;;;;-0.85;87.44;102704.97;5072494;28;20268;-68
2021/03/06 04:06:52;;;;;;;11.40;3.00;;;;;;;-0.81;87.63;102696.13;5072299;28;20334;-68
2021/03/06 04:09:18;;;;;;;11.73;3.05;;;;;;;-0.77;87.66;102707.38;5072105;28;20446;-68
2021/03/06 04:11:43;;;;;;;13.65;3.83;;;;;;;-0.75;87.67;102693.34;5072202;28;20191;-68
2021/03/06 04:14:09;;;;;;;11.93;5.07;;;;;;;-0.73;87.61;102693.28;5072262;28;20130;-68
2021/03/06 04:16:34;;;;;;;20.70;4.00;;;;;;;-0.74;87.51;102696.84;5072323;28;20323;-68
2021/03/06 04:18:59;;;;;;;11.80;3.17;;;;;;;-0.71;87.74;102694.97;5071929;28;20378;-68
2021/03/06 04:21:25;;;;;;;11.77;4.07;;;;;;;-0.67;87.87;102694.00;5072097;28;20036;-68
2021/03/06 04:23:50;;;;;;;15.40;3.43;;;;;;;-0.65;88.37;102688.72;5072130;28;20343;-68
2021/03/06 04:26:15;;;;;;;6.20;3.40;;;;;;;-0.60;88.22;102692.06;5072740;28;20662;-68
2021/03/06 04:28:41;;;;;;;7.32;3.03;;;;;;;-0.53;88.37;102690.13;5071810;28;20032;-69
2021/03/06 04:31:06;;;;;;;13.07;3.90;;;;;;;-0.49;88.04;102683.91;5071967;28;20613;-68
2021/03/06 04:33:32;;;;;;;9.57;3.00;;;;;;;-0.49;88.30;102676.88;5072866;28;20434;-68
2021/03/06 04:35:57;;;;;;;14.10;4.53;;;;;;;-0.52;88.23;102681.34;5072753;28;20457;-68
2021/03/06 04:38:22;;;;;;;9.03;3.70;;;;;;;-0.57;88.59;102685.88;5054848;28;20450;-68
2021/03/06 04:40:48;;;;;;;13.63;4.57;;;;;;;-0.56;88.63;102691.09;5072516;28;20066;-68
2021/03/06 04:43:13;;;;;;;15.57;4.23;;;;;;;-0.52;88.59;102695.31;5072676;28;20063;-68
2021/03/06 04:45:38;;;;;;;9.87;4.37;;;;;;;-0.52;88.79;102691.84;5072632;28;20037;-68
2021/03/06 04:48:04;;;;;;;11.77;3.53;;;;;;;-0.46;88.62;102696.94;5054572;28;20036;-68
2021/03/06 04:50:30;;;;;;;10.43;4.35;;;;;;;-0.45;88.60;102691.63;5072441;28;20472;-68
2021/03/06 04:52:55;;;;;;;10.97;3.60;;;;;;;-0.36;88.65;102694.91;5072270;28;20036;-68
2021/03/06 04:55:20;;;;;;;10.60;5.37;;;;;;;-0.35;88.64;102697.50;5054594;28;20041;-69
2021/03/06 04:57:46;;;;;;;11.73;3.73;;;;;;;-0.34;88.62;102701.81;5072125;28;20044;-68
2021/03/06 05:00:11;;;;;;;15.03;3.87;;;;;;;-0.33;88.61;102703.56;5071412;28;20068;-68
2021/03/06 05:02:37;;;;;;;8.50;3.83;;;;;;;-0.24;88.97;102707.66;5071234;28;20071;-68
2021/03/06 05:05:05;;;;;;;16.57;4.40;;;;;;;-0.22;88.86;102700.59;5072353;28;20048;-68
2021/03/06 05:07:30;;;;;;;11.50;3.38;;;;;;;-0.11;88.75;102697.66;5071806;28;20056;-68
2021/03/06 05:09:56;;;;;;;9.90;3.57;;;;;;;-0.10;88.41;102708.09;5071901;28;20079;-68
2021/03/06 05:12:21;;;;;;;9.87;4.57;;;;;;;-0.11;88.79;102701.16;5071068;28;20044;-68
2021/03/06 05:14:46;;;;;;;10.63;3.50;;;;;;;-0.14;88.71;102697.75;5071199;28;20098;-69
2021/03/06 05:17:12;;;;;;;11.23;3.60;;;;;;;-0.17;88.65;102697.84;5054179;28;20040;-68
2021/03/06 05:19:37;;;;;;;14.50;3.67;;;;;;;-0.22;88.75;102701.44;5071786;28;20044;-69
2021/03/06 05:22:02;;;;;;;8.40;3.10;;;;;;;-0.28;88.68;102703.38;5071010;28;20032;-69
2021/03/06 05:24:28;;;;;;;11.33;4.27;;;;;;;-0.35;88.93;102704.47;5071563;28;20032;-69
2021/03/06 05:27:02;;;;;;;17.20;4.43;;;;;;;-0.35;89.24;102700.09;5071709;28;20051;-68
2021/03/06 05:29:30;;;;;;;17.60;3.97;;;;;;;-0.26;89.54;102702.47;5071469;28;20040;-69
2021/03/06 05:31:55;;;;;;;19.05;5.30;;;;;;;-0.25;89.52;102698.06;5071680;28;20086;-68
2021/03/06 05:34:20;;;;;;;18.73;3.73;;;;;;;-0.29;89.37;102696.44;5071588;28;20040;-69
2021/03/06 05:36:46;;;;;;;12.80;3.87;;;;;;;-0.30;89.30;102694.72;5070692;28;20032;-68
2021/03/06 05:39:11;;;;;;;15.27;3.40;;;;;;;-0.37;89.37;102690.56;5071267;28;20033;-68
2021/03/06 05:41:38;;;;;;;15.80;3.07;;;;;;;-0.31;89.53;102685.97;5071570;28;20097;-68
2021/03/06 05:44:04;;;;;;;14.77;3.22;;;;;;;-0.29;89.71;102691.19;5070694;28;20128;-68
2021/03/06 05:46:29;;;;;;;10.77;4.28;;;;;;;-0.33;89.55;102689.53;5071349;28;20123;-68
2021/03/06 05:48:55;;;;;;;16.73;4.03;;;;;;;-0.38;89.73;102694.06;5070231;28;20036;-68
2021/03/06 05:51:21;;;;;;;11.50;3.20;;;;;;;-0.28;89.91;102701.66;5070539;28;20044;-68
2021/03/06 05:53:50;;;;;;;13.52;3.17;;;;;;;-0.28;89.85;102698.13;5071234;28;20040;-68
2021/03/06 05:56:18;;;;;;;15.80;3.47;;;;;;;-0.24;89.95;102703.25;5070462;28;20044;-68
2021/03/06 05:58:43;;;;;;;18.23;4.38;;;;;;;-0.19;90.09;102708.38;5070032;28;20032;-68
2021/03/06 06:01:13;;;;;;;13.27;4.25;;;;;;;-0.28;89.84;102701.66;5071372;28;20119;-68
2021/03/06 06:03:40;;;;;;;11.60;2.92;;;;;;;-0.33;90.17;102693.06;5071225;28;20040;-68
2021/03/06 06:06:06;;;;;;;12.80;2.58;;;;;;;-0.30;90.25;102702.59;5069544;28;20044;-68
2021/03/06 06:08:33;;;;;;;13.80;3.85;;;;;;;-0.26;90.33;102699.84;5053267;28;20036;-68
2021/03/06 06:10:59;;;;;;;10.07;3.55;;;;;;;-0.27;90.23;102692.84;5070232;28;20051;-68
2021/03/06 06:13:24;;;;;;;12.00;3.65;;;;;;;-0.24;90.39;102684.88;5071217;28;20032;-68
2021/03/06 06:15:53;;;;;;;12.73;4.10;;;;;;;-0.25;90.51;102700.69;5071286;28;20036;-68
2021/03/06 06:18:19;;;;;;;14.45;4.15;;;;;;;-0.16;90.28;102703.06;5070001;28;20415;-68
2021/03/06 06:20:44;;;;;;;17.50;3.65;;;;;;;-0.05;90.26;102706.22;5071150;28;20047;-68
2021/03/06 06:23:11;;;;;;;21.03;6.37;;;;;;;0.06;90.02;102707.66;5071047;28;20036;-69
2021/03/06 06:25:36;;;;;;;;;;;;;;;0.09;89.93;102702.31;5071239;28;20468;-68
2021/03/06 06:28:03;;;;;;;12.90;3.40;;;;;;;0.09;89.89;102711.03;5070649;28;19920;-69
2021/03/06 06:30:29;;;;;;;13.68;3.33;;;;;;;0.43;90.46;102703.91;5071051;28;20044;-69
2021/03/06 06:32:54;;;;;;;9.23;3.07;;;;;;;0.75;90.48;102708.97;5070994;28;20085;-69
2021/03/06 06:35:22;;;;;;;12.05;3.85;;;;;;;0.89;90.01;102707.63;5069864;28;20043;-69
2021/03/06 06:38:03;;;;;;;7.18;2.53;;;;;;;0.74;88.47;102717.75;5052917;28;20037;-69
2021/03/06 06:40:31;;;;;;;11.95;4.82;;;;;;;0.43;88.20;102724.91;5053186;28;20029;-69
2021/03/06 06:42:57;;;;;;;13.02;3.45;;;;;;;0.40;88.48;102724.09;5070924;28;20063;-69
2021/03/06 06:45:24;;;;;;;15.43;3.83;;;;;;;0.44;88.58;102729.25;5070865;28;20041;-69
2021/03/06 06:47:50;;;;;;;;;;;;;;;0.46;88.30;102730.91;5069797;28;20032;-69
2021/03/06 06:50:28;;;;;;;13.32;3.60;;;;;;;0.49;88.42;102727.34;5070823;28;19912;-69
2021/03/06 06:52:54;;;;;;;18.33;4.63;;;;;;;0.49;88.17;102735.22;5070855;28;20119;-69
2021/03/06 06:55:19;;;;;;;11.07;3.87;;;;;;;0.47;88.85;102737.03;5070808;28;20174;-69
2021/03/06 06:57:49;;;;;;;10.73;3.17;;;;;;;0.43;88.99;102736.28;5070525;28;20060;-69
2021/03/06 07:00:16;;;;;;;7.93;2.42;;;;;;;0.59;89.25;102741.91;5070607;28;20454;-69
2021/03/06 07:02:54;;;;;;;;;;;;;;;0.58;89.24;102740.19;5071166;28;20033;-69
2021/03/06 07:05:27;;;;;;;15.70;3.67;;;;;;;0.56;89.49;102747.25;5036475;28;19912;-69
2021/03/06 07:07:53;;;;;;;10.68;3.90;;;;;;;0.63;89.46;102754.03;5070269;28;20163;-69
2021/03/06 07:10:18;;;;;;;8.40;3.97;;;;;;;0.63;89.55;102748.78;5052965;28;20131;-69
2021/03/06 07:12:53;;;;;;;9.17;2.93;;;;;;;0.70;89.50;102760.81;5070596;28;20105;-69
2021/03/06 07:15:21;;;;;;;7.15;3.17;;;;;;;0.66;89.56;102758.38;5070562;28;20040;-69
2021/03/06 07:17:49;;;;;;;18.30;4.65;;;;;;;0.70;89.33;102754.69;5072826;28;20033;-69
2021/03/06 07:20:31;;;;;;;14.50;3.50;;;;;;;0.66;89.81;102756.59;5074214;28;20044;-69
2021/03/06 07:23:10;;;;;;;12.55;3.47;;;;;;;0.68;89.76;102757.41;5074157;28;20033;-69
2021/03/06 07:25:35;;;;;;;11.43;3.08;;;;;;;0.70;89.85;102752.91;5074136;28;20127;-69
2021/03/06 07:28:00;;;;;;;14.23;3.70;;;;;;;0.67;90.02;102754.81;5056122;28;20162;-69
2021/03/06 07:30:26;;;;;;;17.00;4.73;;;;;;;0.69;90.16;102753.84;5074101;28;20036;-69
2021/03/06 07:32:55;;;;;;;20.80;4.17;;;;;;;0.74;90.01;102762.44;5056497;28;20044;-69
2021/03/06 07:35:22;;;;;;;9.70;3.50;;;;;;;0.83;90.14;102761.28;5073919;28;20086;-69
2021/03/06 07:37:49;;;;;;;20.00;4.38;;;;;;;0.91;90.05;102769.78;5073478;28;20457;-69
2021/03/06 07:40:15;;;;;;;11.70;3.80;;;;;;;0.98;90.04;102766.06;5056050;28;20445;-69
2021/03/06 07:42:46;;;;;;;11.73;3.92;;;;;;;1.03;89.55;102769.38;5073770;28;20036;-69
2021/03/06 07:45:15;;;;;;;19.20;4.05;;;;;;;1.09;89.72;102768.31;5073748;28;20052;-69
2021/03/06 07:47:42;;;;;;;16.10;4.28;;;;;;;1.11;89.71;102766.50;5073265;28;20474;-69
2021/03/06 07:50:13;;;;;;;13.38;3.42;;;;;;;1.15;89.67;102768.13;5073468;28;20041;-69
2021/03/06 07:52:40;;;;;;;16.90;3.53;;;;;;;1.22;89.50;102764.38;5055952;28;20047;-69
2021/03/06 07:55:09;;;;;;;8.65;2.97;;;;;;;1.17;89.33;102771.56;5055913;28;20036;-69
2021/03/06 07:58:03;;;;;;;9.10;4.03;;;;;;;1.17;89.75;102779.44;5073265;28;20075;-69
2021/03/06 08:00:50;;;;;;;15.25;3.90;;;;;;;1.15;89.67;102783.91;5055902;28;20051;-69
2021/03/06 08:03:26;;;;;;;14.68;3.67;;;;;;;1.10;89.67;102784.94;5055856;28;20034;-69
2021/03/06 08:05:56;;;;;;;11.00;3.67;;;;;;;1.06;90.07;102781.56;5073352;28;20579;-69
2021/03/06 08:08:30;;;;;;;12.65;4.78;;;;;;;1.18;90.22;102789.06;5038815;28;20063;-69
2021/03/06 08:11:11;;;;;;;9.77;3.88;;;;;;;1.26;90.31;102791.41;5073242;28;20040;-69
2021/03/06 08:13:43;;;;;;;9.25;4.22;;;;;;;1.31;90.07;102794.78;5073319;28;20044;-69
2021/03/06 08:16:20;;;;;;;14.25;5.18;;;;;;;1.35;90.09;102790.25;5073166;28;20051;-69
2021/03/06 08:18:46;;;;;;;12.13;3.95;;;;;;;1.36;90.13;102791.97;5055192;28;20040;-69
2021/03/06 08:21:37;;;;;;;10.18;5.20;;;;;;;1.41;90.33;102790.06;5055416;28;20040;-69
2021/03/06 08:24:14;;;;;;;13.30;4.35;;;;;;;1.45;90.32;102795.16;5072731;28;20090;-69
2021/03/06 08:26:53;;;;;;;7.15;3.03;;;;;;;1.52;90.10;102787.88;5072887;28;20097;-69
2021/03/06 08:29:25;;;;;;;13.25;3.78;;;;;;;1.56;90.09;102797.41;5071981;28;20036;-69
2021/03/06 08:31:54;;;;;;;12.30;3.80;;;;;;;1.62;89.79;102793.72;5055000;28;20132;-69
2021/03/06 08:34:30;;;;;;;12.00;3.95;;;;;;;1.68;89.96;102794.31;5055110;28;20075;-69
2021/03/06 08:37:14;;;;;;;10.43;4.55;;;;;;;1.78;89.76;102784.34;5072800;28;20473;-69
2021/03/06 08:39:51;;;;;;;10.93;3.65;;;;;;;1.86;89.60;102776.16;5054894;28;20115;-69
2021/03/06 08:42:22;;;;;;;14.90;4.30;;;;;;;2.02;89.48;102774.66;5072520;28;20048;-69
2021/03/06 08:44:49;;;;;;;10.93;3.95;;;;;;;2.20;89.00;102772.22;5072541;28;20043;-69
2021/03/06 08:47:25;;;;;;;11.18;3.25;;;;;;;2.68;89.09;102781.78;5038247;28;20028;-69
2021/03/06 08:49:54;;;;;;;;;;;;;;;3.07;85.22;102771.38;5066384;28;20421;-69
2021/03/06 08:52:25;;;;;;;9.25;3.10;;;;;;;3.11;84.58;102769.47;5054886;28;20330;-69
2021/03/06 08:54:50;;;;;;;10.75;3.35;;;;;;;3.18;83.66;102770.91;5071292;28;20519;-69
2021/03/06 08:57:38;;;;;;;8.13;3.07;;;;;;;3.10;83.46;102765.97;5054728;28;20098;-69
2021/03/06 09:00:20;;;;;;;13.80;3.05;;;;;;;3.40;83.38;102770.03;5072354;28;20028;-69
2021/03/06 09:02:45;;;;;;;9.30;3.00;;;;;;;3.35;82.99;102767.59;5071115;28;20086;-69
2021/03/06 09:05:14;;;;;;;8.77;2.57;;;;;;;3.52;82.70;102769.47;5072068;28;20032;-69
2021/03/06 09:07:44;;;;;;;8.52;2.92;;;;;;;3.67;82.89;102776.72;5070773;28;20453;-69
2021/03/06 09:10:20;;;;;;;12.63;3.40;;;;;;;3.57;82.12;102778.91;5072103;28;20040;-69
2021/03/06 09:12:47;;;;;;;7.18;3.90;;;;;;;3.44;81.57;102776.88;5072008;28;20478;-69
2021/03/06 09:15:27;;;;;;;8.27;3.53;;;;;;;3.40;82.52;102780.59;5072080;28;20044;-69
2021/03/06 09:17:52;;;;;;;12.00;3.60;;;;;;;3.27;83.43;102769.69;5053925;28;20405;-69
2021/03/06 09:20:19;;;;;;;13.30;3.37;;;;;;;3.37;82.76;102777.16;5071013;28;20072;-69
2021/03/06 09:22:47;;;;;;;15.50;3.83;;;;;;;3.24;82.64;102783.88;5071888;28;20180;-69
2021/03/06 09:25:13;;;;;;;14.68;3.55;;;;;;;3.28;82.53;102792.53;5071913;28;20119;-69
2021/03/06 09:27:46;;;;;;;9.02;3.05;;;;;;;3.14;82.80;102790.47;5070205;28;20442;-69
2021/03/06 09:30:28;;;;;;;13.27;4.13;;;;;;;3.29;82.99;102796.88;5070702;28;20044;-69
2021/03/06 09:32:55;;;;;;;11.82;3.28;;;;;;;3.34;82.72;102779.06;5069425;28;20040;-69
2021/03/06 09:35:21;;;;;;;11.23;3.55;;;;;;;3.48;82.47;102781.09;5070943;28;20087;-69
2021/03/06 09:38:03;;;;;;;19.00;4.20;;;;;;;3.56;81.81;102786.91;5070072;28;20033;-69
2021/03/06 09:40:28;;;;;;;10.68;3.40;;;;;;;3.61;81.89;102792.84;5070756;28;20032;-69
2021/03/06 09:42:53;;;;;;;9.90;3.17;;;;;;;3.64;80.16;102786.56;5071427;28;20340;-69
2021/03/06 09:45:19;;;;;;;7.93;3.50;;;;;;;3.68;80.83;102785.53;5070684;28;20384;-69
2021/03/06 09:47:45;;;;;;;8.48;3.25;;;;;;;3.81;80.23;102792.81;5071015;28;20044;-69
2021/03/06 09:50:13;;;;;;;11.55;3.20;;;;;;;3.74;79.74;102795.81;5070542;28;20040;-69
2021/03/06 09:52:39;;;;;;;19.42;4.43;;;;;;;3.83;80.15;102784.81;5071457;28;20449;-69
2021/03/06 09:55:16;;;;;;;12.73;3.08;;;;;;;3.87;79.56;102790.84;5070467;28;20437;-69
2021/03/06 09:57:41;;;;;;;12.60;2.58;;;;;;;3.84;79.19;102778.63;5071091;28;20468;-69
2021/03/06 10:00:07;;;;;;;15.13;3.17;;;;;;;3.81;78.96;102774.31;5069051;28;20048;-69
2021/03/06 10:02:46;;;;;;;9.30;2.78;;;;;;;4.02;78.65;102777.75;5070562;28;20039;-69
2021/03/06 10:05:12;;;;;;;13.43;2.85;;;;;;;4.07;77.86;102780.19;5069805;28;20339;-69
2021/03/06 10:07:40;;;;;;;15.10;3.42;;;;;;;4.00;78.00;102786.69;5070257;28;20036;-69
2021/03/06 10:10:06;;;;;;;9.45;3.22;;;;;;;3.99;77.45;102785.84;5070445;28;20044;-69
2021/03/06 10:12:31;;;;;;;13.88;3.83;;;;;;;3.88;78.05;102795.19;5070585;28;20045;-69
2021/03/06 10:14:57;;;;;;;14.77;4.43;;;;;;;3.67;78.28;102787.28;5070529;28;20143;-69
2021/03/06 10:17:24;;;;;;;7.38;2.88;;;;;;;3.69;78.89;102780.16;5070384;28;20064;-69
2021/03/06 10:19:51;;;;;;;8.00;3.08;;;;;;;3.84;78.26;102781.28;5070218;28;20032;-69
2021/03/06 10:22:20;;;;;;;16.27;4.20;;;;;;;4.07;78.30;102779.34;5069472;28;20462;-69
2021/03/06 10:24:57;;;;;;;11.75;4.35;;;;;;;4.22;77.21;102770.72;5069403;28;20040;-69
2021/03/06 10:27:47;;;;;;;11.43;3.58;;;;;;;4.44;76.20;102763.47;5052699;28;20036;-69
2021/03/06 10:30:15;;;;;;;15.23;5.28;;;;;;;4.68;74.63;102757.91;5069492;28;20048;-69
2021/03/06 10:33:18;;;;;;;9.80;3.08;;;;;;;5.24;73.26;102756.91;5070290;28;20120;-69
2021/03/06 10:35:46;;;;;;;8.18;2.90;;;;;;;6.13;69.38;102767.22;5070350;28;20051;-69
2021/03/06 10:38:25;;;;;;;8.18;2.95;;;;;;;5.95;69.58;102770.88;5069939;28;20040;-69
2021/03/06 10:40:56;;;;;;;13.00;3.28;;;;;;;6.17;68.63;102774.09;5070298;28;20033;-69
2021/03/06 10:43:32;;;;;;;7.60;3.13;;;;;;;5.64;70.91;102777.78;5070109;28;20042;-69
2021/03/06 10:46:21;;;;;;;6.15;2.80;;;;;;;5.11;71.57;102776.97;5070256;28;20369;-69
2021/03/06 10:48:53;;;;;;;9.23;2.45;;;;;;;4.85;73.01;102773.00;5069881;28;20154;-69
2021/03/06 10:51:19;;;;;;;9.60;4.22;;;;;;;4.87;73.65;102763.19;5070611;28;20056;-69
2021/03/06 10:54:02;;;;;;;12.55;3.78;;;;;;;4.72;72.52;102769.22;5056192;28;20587;-69
2021/03/06 10:56:27;;;;;;;8.95;3.40;;;;;;;4.75;73.55;102767.31;5056470;28;20123;-69
2021/03/06 10:58:53;;;;;;;9.03;2.13;;;;;;;4.70;73.31;102764.00;5073671;28;20119;-69
2021/03/06 11:01:18;;;;;;;13.63;3.00;;;;;;;4.55;72.32;102772.69;5056297;28;20086;-69
2021/03/06 11:03:48;;;;;;;8.88;2.63;;;;;;;4.64;73.44;102766.97;5056345;28;20090;-69
2021/03/06 11:06:15;;;;;;;11.40;3.10;;;;;;;4.62;71.63;102764.38;5073629;28;20438;-69
2021/03/06 11:08:41;;;;;;;5.80;2.42;;;;;;;4.92;72.06;102762.97;5056039;28;20036;-69
2021/03/06 11:11:08;;;;;;;;;;;;;;;4.91;71.50;102754.13;5074858;28;20101;-69
2021/03/06 11:13:44;;;;;;;9.95;2.33;;;;;;;4.94;72.27;102764.59;5056718;28;19912;-69
2021/03/06 11:16:11;;;;;;;14.38;2.97;;;;;;;4.86;72.13;102761.47;5056700;28;20445;-69
2021/03/06 11:18:39;;;;;;;8.55;2.90;;;;;;;4.95;72.36;102761.00;5056107;28;20627;-69
2021/03/06 11:21:08;;;;;;;11.75;3.22;;;;;;;4.76;72.74;102760.22;5056724;28;20442;-69
2021/03/06 11:23:34;;;;;;;12.60;2.80;;;;;;;4.91;72.05;102754.13;5039898;28;20036;-69
2021/03/06 11:25:59;;;;;;;10.05;3.33;;;;;;;5.01;72.27;102750.13;5056516;28;20029;-69
2021/03/06 11:28:25;;;;;;;13.03;3.00;;;;;;;5.05;71.36;102745.50;5073692;28;20111;-69
2021/03/06 11:30:51;;;;;;;8.55;2.58;;;;;;;5.10;70.66;102737.34;5073975;28;20429;-69
2021/03/06 11:33:18;;;;;;;10.10;2.60;;;;;;;5.16;70.78;102731.75;5073730;28;20066;-69